BQ1 weather

Gilliam-Mc Connell Airfield
Carthage, North Carolina, United States

Public forecast

Using degrees Fahrenheit for public forecast. Weather courtesy of forecast.io.

Closest aviation weather report (METAR) to Gilliam-Mc Connell Airfield

Closest report is Moore County Airport, 6.7 nm (12.3 km) SSE. Retrieved 2019/12/05 18:56 UTC (17 minutes ago):

KSOP 051856Z AUTO VRB06KT 10SM CLR 15/M05 A3007 RMK AO2 SLP188 T01501050

Closest aviation forecast (TAF) to Gilliam-Mc Connell Airfield

Closest forecast is Pope Field, 23.1 nm (42.8 km) ESE. Retrieved 2019/12/05 18:06 UTC (1 hour ago):

TAF KPOB 051800Z 0518/0624 30012G18KT 9999 SKC 510004 QNH3004INS BECMG 0520/0521 VRB03KT 9999 SKC QNH3006INS BECMG 0615/0616 20009KT 9999 BKN100 OVC200 621006 510103 QNH3014INS BECMG 0621/0622 22006KT 9999 BKN035 OVC100 620609 QNH3014INS TX16/0618Z TN00/0612Z